createdAt,value
2022-09-07T03:58:36.649Z,12.00
2022-09-07T03:59:36.632Z,12.00
2022-09-07T04:00:36.634Z,12.00
2022-09-07T04:01:36.701Z,12.00
2022-09-07T04:02:36.728Z,12.00
2022-09-07T04:03:36.634Z,12.00
2022-09-07T04:04:36.631Z,12.00
2022-09-07T04:05:36.633Z,12.00
2022-09-07T04:06:36.665Z,12.00
2022-09-07T04:07:36.654Z,12.00
2022-09-07T04:08:36.650Z,12.00
2022-09-07T04:09:36.654Z,12.00
2022-09-07T04:10:36.662Z,12.00
2022-09-07T04:11:34.972Z,12.00
2022-09-07T04:12:34.975Z,16.00
2022-09-07T04:13:36.165Z,16.00
2022-09-07T04:14:34.973Z,16.00
2022-09-07T04:15:36.160Z,12.00
2022-09-07T04:16:35.006Z,16.00
2022-09-07T04:17:34.955Z,16.00
2022-09-07T04:18:35.949Z,16.00
2022-09-07T04:19:34.946Z,16.00
2022-09-07T04:20:36.657Z,16.00
2022-09-07T04:21:34.945Z,16.00
2022-09-07T04:22:34.941Z,16.00
2022-09-07T04:23:35.946Z,16.00
2022-09-07T04:24:34.955Z,16.00
2022-09-07T04:25:36.672Z,16.00
2022-09-07T04:26:35.931Z,16.00
2022-09-07T04:27:36.662Z,16.00
2022-09-07T04:28:35.921Z,16.00
2022-09-07T04:29:36.658Z,16.00
2022-09-07T04:30:36.254Z,16.00
2022-09-07T04:31:36.666Z,16.00
2022-09-07T04:32:36.664Z,12.00
2022-09-07T04:33:36.664Z,12.00
2022-09-07T04:34:36.657Z,12.00
2022-09-07T04:35:36.700Z,12.00
2022-09-07T04:36:36.680Z,16.00
2022-09-07T04:37:34.908Z,16.00
2022-09-07T04:38:34.889Z,16.00
2022-09-07T04:39:36.764Z,16.00
2022-09-07T04:40:34.886Z,16.00
2022-09-07T04:41:34.906Z,20.00
2022-09-07T04:42:34.880Z,16.00
2022-09-07T04:43:34.877Z,16.00
2022-09-07T04:44:36.184Z,20.00
2022-09-07T04:45:34.909Z,20.00
2022-09-07T04:46:34.887Z,20.00
2022-09-07T04:47:34.868Z,20.00
2022-09-07T04:48:36.186Z,20.00
2022-09-07T04:49:36.670Z,24.00
2022-09-07T04:50:36.675Z,20.00
2022-09-07T04:51:36.687Z,24.00
2022-09-07T04:52:36.678Z,24.00
2022-09-07T04:53:36.676Z,24.00
2022-09-07T04:54:36.689Z,28.00
2022-09-07T04:55:36.686Z,32.00
2022-09-07T04:56:36.713Z,32.00
2022-09-07T04:57:36.697Z,40.00
2022-09-07T04:58:36.694Z,44.00
2022-09-07T04:59:36.704Z,48.00
2022-09-07T05:00:34.828Z,48.00
2022-09-07T05:01:36.757Z,52.00
2022-09-07T05:02:36.775Z,56.00
2022-09-07T05:03:36.683Z,60.00
2022-09-07T05:04:34.838Z,64.00
2022-09-07T05:05:34.808Z,72.00
2022-09-07T05:06:34.806Z,76.00
2022-09-07T05:07:36.704Z,80.00
2022-09-07T05:08:34.810Z,84.00
2022-09-07T05:09:34.803Z,88.00
2022-09-07T05:10:36.200Z,96.00
2022-09-07T05:11:34.801Z,100.00
2022-09-07T05:12:34.798Z,112.00
2022-09-07T05:13:34.813Z,120.00
2022-09-07T05:14:36.701Z,128.00
2022-09-07T05:15:34.789Z,140.00
2022-09-07T05:16:36.285Z,152.00
2022-09-07T05:17:34.804Z,168.00
2022-09-07T05:18:34.781Z,184.00
2022-09-07T05:19:34.790Z,200.00
2022-09-07T05:20:36.698Z,216.00
2022-09-07T05:21:36.730Z,240.00
2022-09-07T05:22:34.794Z,264.00
2022-09-07T05:23:36.693Z,292.00
2022-09-07T05:24:36.714Z,316.00
2022-09-07T05:25:36.699Z,336.00
2022-09-07T05:26:36.711Z,360.00
2022-09-07T05:27:35.756Z,380.00
2022-09-07T05:28:36.722Z,400.00
2022-09-07T05:31:36.708Z,448.00
2022-09-07T05:32:36.714Z,460.00
2022-09-07T05:34:36.720Z,400.00
2022-09-07T05:35:34.720Z,412.00
2022-09-07T05:36:35.716Z,428.00
2022-09-07T05:37:36.208Z,440.00
2022-09-07T05:38:36.220Z,452.00
2022-09-07T05:39:37.778Z,468.00
2022-09-07T05:40:40.515Z,476.00
2022-09-07T05:41:36.235Z,488.00
2022-09-07T05:42:36.212Z,504.00
2022-09-07T05:43:36.228Z,516.00
2022-09-07T05:44:43.842Z,532.00
2022-09-07T05:45:36.274Z,548.00
2022-09-07T05:46:36.239Z,564.00
2022-09-07T05:47:36.245Z,584.00
2022-09-07T05:48:35.796Z,600.00
2022-09-07T05:49:34.680Z,620.00
2022-09-07T05:50:35.495Z,640.00
2022-09-07T05:51:35.964Z,672.00
2022-09-07T05:52:34.798Z,784.00
2022-09-07T05:53:35.677Z,784.00
2022-09-07T05:54:34.728Z,760.00
2022-09-07T05:55:34.784Z,788.00
2022-09-07T05:56:35.783Z,828.00
2022-09-07T05:57:34.702Z,852.00
2022-09-07T05:58:34.968Z,844.00
2022-09-07T06:00:34.643Z,900.00
2022-09-07T06:01:36.996Z,952.00
2022-09-07T06:02:39.524Z,1020.00
2022-09-07T06:03:36.284Z,940.00
2022-09-07T06:04:36.630Z,920.00
2022-09-07T06:05:34.721Z,968.00
2022-09-07T06:06:36.252Z,980.00
2022-09-07T06:07:36.241Z,1000.00
2022-09-07T06:08:36.238Z,1032.00
2022-09-07T06:09:36.315Z,980.00
2022-09-07T06:10:44.673Z,1008.00
2022-09-07T06:11:36.242Z,1048.00
2022-09-07T06:12:36.256Z,1208.00
2022-09-07T06:13:36.273Z,1240.00
2022-09-07T06:14:36.259Z,1164.00
2022-09-07T06:15:36.276Z,1088.00
2022-09-07T06:16:34.687Z,1172.00
2022-09-07T06:17:36.275Z,1204.00
2022-09-07T06:18:34.624Z,1352.00
2022-09-07T06:19:34.636Z,1248.00
2022-09-07T06:20:35.755Z,1272.00
2022-09-07T06:21:35.629Z,1280.00
2022-09-07T06:22:34.615Z,1404.00
2022-09-07T06:23:36.254Z,1364.00
2022-09-07T06:24:36.292Z,1420.00
2022-09-07T06:25:36.291Z,1544.00
2022-09-07T06:26:34.661Z,1748.00
2022-09-07T06:27:36.255Z,1648.00
2022-09-07T06:28:36.265Z,1664.00
2022-09-07T06:29:35.604Z,1676.00
2022-09-07T06:30:36.302Z,1696.00
2022-09-07T06:31:35.805Z,1536.00
2022-09-07T06:32:44.107Z,1720.00
2022-09-07T06:33:36.260Z,1800.00
2022-09-07T06:34:36.314Z,1520.00
2022-09-07T06:36:35.584Z,1704.00
2022-09-07T06:37:36.360Z,1472.00
2022-09-07T06:38:36.270Z,1476.00
2022-09-07T06:39:34.665Z,1748.00
2022-09-07T06:40:34.723Z,1444.00
2022-09-07T06:42:34.647Z,1708.00
2022-09-07T06:43:34.621Z,1924.00
2022-09-07T06:44:34.811Z,2008.00
2022-09-07T06:45:34.720Z,1768.00
2022-09-07T06:47:34.575Z,1880.00
2022-09-07T06:48:34.594Z,1724.00
2022-09-07T06:49:34.573Z,1880.00
2022-09-07T06:50:34.643Z,1788.00
2022-09-07T06:51:38.001Z,1684.00
2022-09-07T06:53:43.119Z,2232.00
2022-09-07T06:55:04.558Z,1980.00
2022-09-07T06:55:36.470Z,1884.00
2022-09-07T06:56:34.640Z,1936.00
2022-09-07T06:57:36.355Z,2776.00
2022-09-07T06:58:39.176Z,2420.00
2022-09-07T06:59:36.324Z,2460.00
2022-09-07T07:00:36.367Z,2276.00
2022-09-07T07:01:36.327Z,1892.00
2022-09-07T07:02:36.811Z,1972.00
2022-09-07T07:03:36.344Z,2240.00
2022-09-07T07:04:40.463Z,2344.00
2022-09-07T07:05:36.335Z,2528.00
2022-09-07T07:06:36.311Z,2608.00
2022-09-07T07:07:36.308Z,2260.00
2022-09-07T07:08:37.321Z,2240.00
2022-09-07T07:09:36.455Z,2700.00
2022-09-07T07:10:36.296Z,2976.00
2022-09-07T07:11:37.331Z,2756.00
2022-09-07T07:13:36.397Z,2656.00
2022-09-07T07:14:36.267Z,2444.00
2022-09-07T07:15:34.558Z,2552.00
2022-09-07T07:16:34.667Z,2644.00
2022-09-07T07:17:36.331Z,3104.00
2022-09-07T07:18:35.901Z,2540.00
2022-09-07T07:19:35.616Z,2384.00
2022-09-07T07:20:34.575Z,2424.00
2022-09-07T07:21:55.350Z,2452.00
2022-09-07T07:22:46.665Z,2840.00
2022-09-07T07:23:38.104Z,3048.00
2022-09-07T07:24:35.007Z,3212.00
2022-09-07T07:25:34.566Z,2820.00
2022-09-07T07:26:36.977Z,3164.00
2022-09-07T07:27:37.353Z,3280.00
2022-09-07T07:29:34.788Z,3944.00
2022-09-07T07:30:48.868Z,4160.00
2022-09-07T07:31:37.332Z,3800.00
2022-09-07T07:32:36.175Z,3388.00
2022-09-07T07:33:36.492Z,2708.00
2022-09-07T07:34:59.557Z,2264.00
2022-09-07T07:35:34.642Z,2148.00
2022-09-07T07:36:35.806Z,1920.00
2022-09-07T07:37:36.680Z,2220.00
2022-09-07T07:40:39.135Z,2128.00
2022-09-07T07:42:36.373Z,2084.00
2022-09-07T07:43:36.357Z,2132.00
2022-09-07T07:44:34.552Z,2204.00
2022-09-07T07:46:06.161Z,2024.00
2022-09-07T07:46:35.036Z,1964.00
2022-09-07T07:47:37.456Z,1960.00
2022-09-07T07:48:34.582Z,1932.00
2022-09-07T07:49:35.284Z,1912.00
2022-09-07T07:50:36.390Z,1896.00
2022-09-07T07:53:41.043Z,1912.00
2022-09-07T07:53:42.591Z,1908.00
2022-09-07T07:54:36.624Z,1896.00
2022-09-07T07:55:50.119Z,1896.00
2022-09-07T07:56:35.478Z,1924.00
2022-09-07T07:57:36.617Z,1956.00
2022-09-07T07:58:34.696Z,1980.00
2022-09-07T07:59:37.427Z,2040.00
2022-09-07T08:00:51.007Z,2160.00
2022-09-07T08:01:36.370Z,2308.00
2022-09-07T08:02:36.422Z,2524.00
2022-09-07T08:03:36.590Z,2904.00
2022-09-07T08:04:36.473Z,3444.00
2022-09-07T08:05:36.365Z,3580.00
2022-09-07T08:06:36.361Z,3164.00
2022-09-07T08:07:37.360Z,3252.00
2022-09-07T08:08:36.354Z,3216.00
2022-09-07T08:09:36.367Z,3088.00
2022-09-07T08:10:34.621Z,3148.00
2022-09-07T08:11:34.574Z,2964.00
2022-09-07T08:12:36.378Z,2960.00
2022-09-07T08:13:34.566Z,3172.00
2022-09-07T08:14:34.660Z,3200.00
2022-09-07T08:15:36.407Z,3500.00
2022-09-07T08:16:34.597Z,3116.00
2022-09-07T08:17:35.883Z,2960.00
2022-09-07T08:18:36.382Z,3096.00
2022-09-07T08:19:34.608Z,2936.00
2022-09-07T08:20:34.585Z,2944.00
2022-09-07T08:21:34.559Z,2996.00
2022-09-07T08:22:36.415Z,3120.00
2022-09-07T08:23:34.559Z,3236.00
2022-09-07T08:24:34.569Z,3348.00
2022-09-07T08:25:34.570Z,3672.00
2022-09-07T08:26:34.564Z,4328.00
2022-09-07T08:27:35.884Z,4344.00
2022-09-07T08:28:34.580Z,4060.00
2022-09-07T08:29:36.365Z,4248.00
2022-09-07T08:30:36.379Z,3908.00
2022-09-07T08:31:36.465Z,3732.00
2022-09-07T08:32:36.393Z,3416.00
2022-09-07T08:33:36.498Z,3980.00
2022-09-07T08:34:34.569Z,3752.00
2022-09-07T08:35:36.390Z,3900.00
2022-09-07T08:36:36.398Z,4248.00
2022-09-07T08:37:36.389Z,5144.00
2022-09-07T08:38:36.400Z,4136.00
2022-09-07T08:39:36.426Z,3932.00
2022-09-07T08:40:37.387Z,4220.00
2022-09-07T08:41:36.494Z,3632.00
2022-09-07T08:42:36.454Z,3616.00
2022-09-07T08:43:36.421Z,3352.00
2022-09-07T08:44:36.395Z,3284.00
2022-09-07T08:45:36.419Z,3244.00
2022-09-07T08:46:36.543Z,3232.00
2022-09-07T08:47:36.386Z,3196.00
2022-09-07T08:48:36.398Z,3164.00
2022-09-07T08:49:36.396Z,3160.00
2022-09-07T08:50:36.384Z,3164.00
2022-09-07T08:51:36.521Z,3152.00
2022-09-07T08:52:36.408Z,3140.00
2022-09-07T08:53:36.390Z,3120.00
2022-09-07T08:54:36.475Z,3092.00
2022-09-07T08:55:36.487Z,3052.00
2022-09-07T08:56:36.608Z,3024.00
2022-09-07T08:57:36.428Z,3008.00
2022-09-07T08:58:50.187Z,3004.00
2022-09-07T08:59:34.598Z,3004.00
2022-09-07T09:00:36.407Z,2992.00
2022-09-07T09:01:35.477Z,3008.00
2022-09-07T09:02:43.215Z,3008.00
2022-09-07T09:03:35.006Z,3004.00
2022-09-07T09:05:15.185Z,3032.00
2022-09-07T09:05:36.534Z,3060.00
2022-09-07T09:06:36.181Z,3152.00
2022-09-07T09:07:34.612Z,3124.00
2022-09-07T09:08:36.449Z,3072.00
2022-09-07T09:09:36.420Z,3016.00
2022-09-07T09:10:34.633Z,3040.00
2022-09-07T09:11:34.621Z,2932.00
2022-09-07T09:12:37.801Z,2836.00
2022-09-07T09:13:36.418Z,2756.00
2022-09-07T09:14:35.953Z,2704.00
2022-09-07T09:15:36.475Z,2656.00
2022-09-07T09:16:36.410Z,2612.00
2022-09-07T09:17:36.438Z,2596.00
2022-09-07T09:18:35.928Z,2604.00
2022-09-07T09:19:34.662Z,2608.00
2022-09-07T09:20:36.463Z,2736.00
2022-09-07T09:21:36.429Z,2900.00
2022-09-07T09:22:34.630Z,3204.00
2022-09-07T09:23:34.658Z,3368.00
2022-09-07T09:24:34.647Z,3412.00
2022-09-07T09:25:37.833Z,3396.00
2022-09-07T09:26:35.650Z,3816.00
2022-09-07T09:27:39.665Z,3400.00
2022-09-07T09:28:39.905Z,3600.00
2022-09-07T09:29:34.671Z,3456.00
2022-09-07T09:30:42.955Z,3296.00
2022-09-07T09:31:36.836Z,3456.00
2022-09-07T09:32:34.692Z,3384.00
2022-09-07T09:33:34.715Z,4072.00
2022-09-07T09:34:35.188Z,3608.00
2022-09-07T09:35:36.441Z,3704.00
2022-09-07T09:36:34.661Z,3824.00
2022-09-07T09:37:37.377Z,4052.00
2022-09-07T09:38:34.799Z,3832.00
2022-09-07T09:39:34.754Z,3768.00
2022-09-07T09:40:35.575Z,3812.00
2022-09-07T09:41:36.719Z,4016.00
2022-09-07T09:42:34.667Z,3936.00
2022-09-07T09:43:34.665Z,4096.00
2022-09-07T09:44:34.700Z,4304.00
2022-09-07T09:46:39.152Z,3848.00
2022-09-07T09:47:35.039Z,3584.00
2022-09-07T09:48:48.083Z,3508.00
2022-09-07T09:49:41.676Z,3444.00
2022-09-07T09:52:45.136Z,3276.00
2022-09-07T09:53:35.468Z,3180.00
2022-09-07T09:54:36.463Z,3064.00
2022-09-07T09:55:36.670Z,2976.00
2022-09-07T09:56:36.453Z,2888.00
2022-09-07T09:57:36.587Z,2840.00
2022-09-07T10:01:20.463Z,2876.00
2022-09-07T10:12:52.094Z,3864.00
2022-09-07T10:13:51.573Z,3736.00
2022-09-07T10:14:50.578Z,3628.00
2022-09-07T10:15:51.643Z,3588.00
2022-09-07T10:16:52.095Z,3624.00
2022-09-07T10:17:52.125Z,3720.00
2022-09-07T10:18:52.608Z,3816.00
2022-09-07T10:19:52.601Z,3816.00
2022-09-07T10:20:50.594Z,3720.00
2022-09-07T10:21:52.089Z,3556.00
2022-09-07T10:22:51.618Z,3480.00
2022-09-07T10:23:50.596Z,3456.00
2022-09-07T10:24:51.665Z,3600.00
2022-09-07T10:25:51.603Z,3856.00
2022-09-07T10:26:50.611Z,4088.00
2022-09-07T10:27:52.646Z,4220.00
2022-09-07T10:29:50.592Z,4464.00
2022-09-07T10:30:51.258Z,4588.00
2022-09-07T10:31:50.609Z,4708.00
2022-09-07T10:32:52.199Z,4836.00
2022-09-07T10:34:52.107Z,5124.00
2022-09-07T10:35:50.618Z,5292.00
2022-09-07T10:36:52.662Z,5332.00
2022-09-07T10:37:50.621Z,5356.00
2022-09-07T10:38:50.620Z,5464.00
2022-09-07T10:39:50.645Z,5588.00
2022-09-07T10:40:52.589Z,5720.00
2022-09-07T10:41:50.637Z,5804.00
2022-09-07T10:43:50.627Z,5980.00
2022-09-07T10:44:52.649Z,5936.00
2022-09-07T10:45:50.727Z,5832.00
2022-09-07T10:46:59.911Z,5776.00
2022-09-07T10:47:52.622Z,6068.00
2022-09-07T10:48:52.159Z,7368.00
2022-09-07T10:50:50.639Z,5552.00
2022-09-07T10:51:52.627Z,6508.00
2022-09-07T10:52:51.649Z,5716.00
2022-09-07T10:54:50.650Z,5048.00
2022-09-07T10:55:52.616Z,5064.00
2022-09-07T10:57:52.625Z,4624.00
2022-09-07T10:59:06.097Z,4560.00
2022-09-07T11:00:08.787Z,4776.00
2022-09-07T11:00:51.716Z,4880.00
2022-09-07T11:01:51.714Z,5664.00
2022-09-07T11:03:50.754Z,4740.00
2022-09-07T11:04:50.689Z,4812.00
2022-09-07T11:05:52.774Z,4940.00
2022-09-07T11:06:52.212Z,5008.00
2022-09-07T11:08:00.679Z,4944.00
2022-09-07T11:09:52.644Z,4372.00
2022-09-07T11:10:52.621Z,4128.00
2022-09-07T11:12:07.916Z,3888.00
2022-09-07T11:12:53.166Z,3772.00
2022-09-07T11:14:11.954Z,3812.00
2022-09-07T11:14:51.775Z,4008.00
2022-09-07T11:15:51.485Z,4376.00
2022-09-07T11:16:52.455Z,4700.00
2022-09-07T11:17:55.371Z,4832.00
2022-09-07T11:18:52.970Z,4512.00
2022-09-07T11:19:50.734Z,4208.00
2022-09-07T11:20:51.334Z,4028.00
2022-09-07T11:21:57.978Z,3932.00
2022-09-07T11:22:53.501Z,3908.00
2022-09-07T11:23:50.746Z,3944.00
2022-09-07T11:25:52.146Z,4180.00
2022-09-07T11:26:52.638Z,4288.00
2022-09-07T11:27:52.645Z,4352.00
2022-09-07T11:29:52.645Z,4244.00
2022-09-07T11:30:56.627Z,4068.00
2022-09-07T11:31:52.673Z,3852.00
2022-09-07T11:32:52.732Z,3692.00
2022-09-07T11:34:52.180Z,3480.00
2022-09-07T11:35:52.668Z,3432.00
2022-09-07T11:36:50.794Z,3448.00
2022-09-07T11:37:50.805Z,3544.00
2022-09-07T11:38:52.186Z,3708.00
2022-09-07T11:39:52.743Z,3924.00
2022-09-07T11:40:52.683Z,4324.00
2022-09-07T11:41:52.653Z,4512.00
2022-09-07T11:42:52.654Z,4504.00
2022-09-07T11:43:52.674Z,4816.00
2022-09-07T11:44:52.704Z,6004.00
2022-09-07T11:45:52.727Z,6200.00
2022-09-07T11:46:52.664Z,5932.00
2022-09-07T11:47:52.696Z,5312.00
2022-09-07T11:48:52.674Z,5336.00
2022-09-07T11:49:55.055Z,6132.00
2022-09-07T11:50:53.681Z,5712.00
2022-09-07T11:51:54.077Z,6216.00
2022-09-07T11:52:53.929Z,7940.00
2022-09-07T11:53:52.705Z,9272.00
2022-09-07T11:54:52.774Z,8728.00
2022-09-07T11:55:51.953Z,5476.00
2022-09-07T11:56:52.687Z,4520.00
2022-09-07T11:57:55.573Z,4356.00
2022-09-07T11:58:50.857Z,4244.00
2022-09-07T11:59:53.687Z,4116.00
2022-09-07T12:00:50.872Z,4032.00
2022-09-07T12:01:50.951Z,4040.00
2022-09-07T12:03:00.960Z,3976.00
2022-09-07T12:03:52.315Z,3924.00
2022-09-07T12:04:55.966Z,3792.00
2022-09-07T12:05:50.906Z,3544.00
2022-09-07T12:06:52.699Z,3516.00
2022-09-07T12:07:50.896Z,3492.00
2022-09-07T12:08:50.893Z,3288.00
2022-09-07T12:09:50.896Z,3144.00
2022-09-07T12:10:50.920Z,3012.00
2022-09-07T12:11:52.739Z,2888.00
2022-09-07T12:12:51.567Z,2808.00
2022-09-07T12:13:50.906Z,2748.00
2022-09-07T12:14:52.782Z,2712.00
2022-09-07T12:15:52.762Z,2684.00
2022-09-07T12:16:50.924Z,2608.00
2022-09-07T12:17:52.807Z,2520.00
2022-09-07T12:18:50.930Z,2416.00
2022-09-07T12:19:52.937Z,2316.00
2022-09-07T12:20:50.939Z,2224.00
2022-09-07T12:21:52.718Z,2144.00
2022-09-07T12:22:50.947Z,2108.00
2022-09-07T12:23:52.704Z,2088.00
2022-09-07T12:24:52.813Z,2076.00
2022-09-07T12:25:52.750Z,2048.00
2022-09-07T12:26:52.706Z,2020.00
2022-09-07T12:27:52.708Z,2012.00
2022-09-07T12:28:52.721Z,2036.00
2022-09-07T12:29:52.807Z,2080.00
2022-09-07T12:30:52.763Z,2144.00
2022-09-07T12:32:52.352Z,2216.00
2022-09-07T12:32:54.240Z,2284.00
2022-09-07T12:33:50.982Z,2356.00
2022-09-07T12:34:52.733Z,2440.00
2022-09-07T12:35:52.740Z,2516.00
2022-09-07T12:36:52.712Z,2588.00
2022-09-07T12:37:52.716Z,2688.00
2022-09-07T12:38:50.997Z,2784.00
2022-09-07T12:39:52.797Z,2884.00
2022-09-07T12:40:52.743Z,3020.00
2022-09-07T12:42:52.721Z,3260.00
2022-09-07T12:43:52.735Z,3252.00
2022-09-07T12:44:52.742Z,3208.00
2022-09-07T12:45:52.870Z,3160.00
2022-09-07T12:46:52.795Z,3136.00
2022-09-07T12:47:52.743Z,3172.00
2022-09-07T12:48:52.726Z,3256.00
2022-09-07T12:49:52.747Z,3372.00
2022-09-07T12:50:52.772Z,3480.00
2022-09-07T12:52:05.049Z,3584.00
2022-09-07T12:52:52.731Z,3712.00
2022-09-07T12:53:57.444Z,3884.00
2022-09-07T12:55:10.089Z,4100.00
2022-09-07T12:57:52.748Z,4992.00
2022-09-07T12:58:52.787Z,5212.00
2022-09-07T12:59:52.758Z,5272.00
2022-09-07T13:00:52.750Z,5260.00
2022-09-07T13:01:52.961Z,5220.00
2022-09-07T13:02:52.764Z,5220.00
2022-09-07T13:03:52.763Z,5324.00
2022-09-07T13:04:53.013Z,5572.00
2022-09-07T13:05:52.828Z,6068.00
2022-09-07T13:07:08.119Z,7104.00
2022-09-07T13:07:51.078Z,8752.00
2022-09-07T13:08:51.079Z,11160.00
2022-09-07T13:09:51.072Z,11164.00
2022-09-07T13:10:52.773Z,13116.00
2022-09-07T13:11:51.084Z,13392.00
2022-09-07T13:12:56.490Z,15724.00
2022-09-07T13:14:09.573Z,15092.00
2022-09-07T13:14:52.753Z,8740.00
2022-09-07T13:15:52.833Z,7940.00
2022-09-07T13:17:52.761Z,8516.00
2022-09-07T13:18:52.806Z,12640.00
2022-09-07T13:19:52.765Z,13412.00
2022-09-07T13:20:53.662Z,13220.00
2022-09-07T13:21:51.116Z,11736.00
2022-09-07T13:22:51.117Z,11360.00
2022-09-07T13:23:53.175Z,10428.00
2022-09-07T13:24:52.817Z,8832.00
2022-09-07T13:25:52.788Z,8712.00
2022-09-07T13:26:52.790Z,13048.00
2022-09-07T13:27:52.875Z,15580.00
2022-09-07T13:28:52.777Z,15436.00
2022-09-07T13:29:52.775Z,14400.00
2022-09-07T13:30:51.222Z,17632.00
2022-09-07T13:31:52.964Z,12316.00
2022-09-07T13:33:08.685Z,16772.00
2022-09-07T13:33:51.179Z,16720.00
2022-09-07T13:34:51.182Z,14848.00
2022-09-07T13:35:51.166Z,24192.00
2022-09-07T13:36:52.803Z,13908.00
2022-09-07T13:37:52.822Z,19584.00
2022-09-07T13:38:52.805Z,35136.00
2022-09-07T13:39:51.239Z,34080.00
2022-09-07T13:40:51.199Z,40128.00
2022-09-07T13:41:52.802Z,36800.00
2022-09-07T13:42:52.814Z,33888.00
2022-09-07T13:43:51.220Z,39520.00
2022-09-07T13:44:52.805Z,40288.00
2022-09-07T13:45:51.273Z,39136.00
2022-09-07T13:46:51.287Z,23008.00
2022-09-07T13:47:52.314Z,42816.00
2022-09-07T13:48:52.824Z,40832.00
2022-09-07T13:49:55.156Z,34592.00
2022-09-07T13:50:51.243Z,14508.00
2022-09-07T13:51:52.809Z,24320.00
2022-09-07T13:52:51.258Z,33376.00
2022-09-07T13:53:52.816Z,36864.00
2022-09-07T13:54:51.267Z,28704.00
2022-09-07T13:55:52.817Z,30912.00
2022-09-07T13:56:51.280Z,35712.00
2022-09-07T13:57:52.833Z,35904.00
2022-09-07T13:58:51.299Z,27936.00
2022-09-07T13:59:52.842Z,27584.00
2022-09-07T14:00:52.938Z,27776.00
2022-09-07T14:01:51.494Z,32096.00
2022-09-07T14:02:56.715Z,30208.00
2022-09-07T14:03:52.829Z,30848.00
2022-09-07T14:04:51.339Z,33632.00
2022-09-07T14:05:53.315Z,35264.00
2022-09-07T14:06:51.350Z,31488.00
2022-09-07T14:07:51.358Z,32064.00
2022-09-07T14:08:53.336Z,30048.00
2022-09-07T14:09:51.368Z,28352.00
2022-09-07T14:10:53.322Z,30176.00
2022-09-07T14:11:51.397Z,28448.00
2022-09-07T14:12:52.838Z,22976.00
2022-09-07T14:13:52.405Z,19136.00
2022-09-07T14:14:52.436Z,19936.00
2022-09-07T14:15:52.412Z,22368.00
2022-09-07T14:16:53.422Z,28224.00
2022-09-07T14:17:53.368Z,29600.00
2022-09-07T14:18:53.336Z,26944.00
2022-09-07T14:19:53.348Z,28928.00
2022-09-07T14:20:51.451Z,27264.00
2022-09-07T14:21:53.342Z,25664.00
2022-09-07T14:22:53.639Z,25280.00
2022-09-07T14:23:52.461Z,22592.00
2022-09-07T14:24:53.352Z,18240.00
2022-09-07T14:26:21.342Z,15880.00
2022-09-07T14:26:53.368Z,21856.00
2022-09-07T14:27:53.368Z,21696.00
2022-09-07T14:28:52.496Z,14772.00
2022-09-07T14:29:53.356Z,12800.00
2022-09-07T14:30:53.461Z,15780.00
2022-09-07T14:31:53.648Z,11508.00
2022-09-07T14:32:53.382Z,13156.00
2022-09-07T14:33:53.357Z,21408.00
2022-09-07T14:34:53.349Z,22304.00
2022-09-07T14:35:53.397Z,22048.00
2022-09-07T14:36:53.376Z,16108.00
2022-09-07T14:37:53.380Z,21568.00
2022-09-07T14:39:08.766Z,19968.00
2022-09-07T14:39:53.474Z,17396.00
2022-09-07T14:40:53.365Z,21184.00
2022-09-07T14:41:53.361Z,22080.00
2022-09-07T14:42:53.414Z,20096.00
2022-09-07T14:43:53.361Z,17200.00
2022-09-07T14:44:51.602Z,14744.00
2022-09-07T14:45:52.441Z,14500.00
2022-09-07T14:46:55.382Z,14820.00
2022-09-07T14:47:53.387Z,16180.00
2022-09-07T14:48:55.117Z,13528.00
2022-09-07T14:49:53.408Z,13684.00
2022-09-07T14:51:11.015Z,16212.00
2022-09-07T14:51:53.385Z,14488.00
2022-09-07T14:53:53.371Z,13708.00
2022-09-07T14:54:53.391Z,13440.00
2022-09-07T14:55:53.383Z,19232.00
2022-09-07T14:56:53.394Z,19712.00
2022-09-07T14:57:53.389Z,19616.00
2022-09-07T14:58:53.406Z,25888.00
2022-09-07T14:59:53.385Z,19648.00
2022-09-07T15:01:53.460Z,24032.00
2022-09-07T15:02:53.399Z,28256.00
2022-09-07T15:03:53.491Z,24672.00
2022-09-07T15:04:53.477Z,23808.00
2022-09-07T15:05:55.547Z,18272.00
2022-09-07T15:07:01.256Z,17096.00
2022-09-07T15:07:53.394Z,18912.00
2022-09-07T15:08:53.422Z,15536.00
2022-09-07T15:09:53.401Z,16432.00
2022-09-07T15:11:53.426Z,16776.00
2022-09-07T15:12:53.393Z,17760.00
2022-09-07T15:13:53.412Z,16012.00
2022-09-07T15:14:51.780Z,15188.00
2022-09-07T15:15:51.779Z,14848.00
2022-09-07T15:17:42.587Z,16476.00
2022-09-07T15:17:53.958Z,18144.00
2022-09-07T15:18:51.786Z,17004.00
2022-09-07T15:19:51.787Z,17408.00
2022-09-07T15:20:53.058Z,13416.00
2022-09-07T15:21:51.797Z,14264.00
2022-09-07T15:22:54.349Z,15904.00
2022-09-07T15:23:51.808Z,14384.00
2022-09-07T15:24:51.819Z,15136.00
2022-09-07T15:25:54.161Z,16720.00
2022-09-07T15:27:07.216Z,18304.00
2022-09-07T15:27:52.827Z,18720.00
2022-09-07T15:29:09.829Z,16688.00
2022-09-07T15:29:52.845Z,11212.00
2022-09-07T15:31:40.483Z,7504.00
2022-09-07T15:32:02.224Z,6380.00
2022-09-07T15:32:53.478Z,5928.00
2022-09-07T15:33:52.946Z,5452.00
2022-09-07T15:34:51.858Z,5076.00
2022-09-07T15:35:53.436Z,5264.00
2022-09-07T15:36:52.267Z,5188.00
2022-09-07T15:38:02.323Z,5264.00
2022-09-07T15:39:00.720Z,5160.00
2022-09-07T15:39:53.028Z,5096.00
2022-09-07T15:41:20.831Z,5000.00
2022-09-07T15:41:53.757Z,4764.00
2022-09-07T15:43:01.192Z,4396.00
2022-09-07T15:43:53.458Z,4312.00
2022-09-07T15:44:53.450Z,4468.00
2022-09-07T15:45:52.978Z,4544.00
2022-09-07T15:47:53.752Z,4024.00
2022-09-07T15:48:52.954Z,4044.00
2022-09-07T15:49:53.888Z,3968.00
2022-09-07T15:50:54.231Z,4056.00
2022-09-07T15:52:08.930Z,3744.00
2022-09-07T15:52:53.442Z,3436.00
2022-09-07T15:54:12.810Z,3492.00
2022-09-07T15:54:54.032Z,3196.00
2022-09-07T15:55:53.460Z,3008.00
2022-09-07T15:58:05.531Z,2700.00
2022-09-07T15:58:54.825Z,2628.00
2022-09-07T15:59:53.953Z,2616.00
2022-09-07T16:13:16.952Z,3400.00
2022-09-07T16:14:13.146Z,3460.00
2022-09-07T16:15:12.703Z,3604.00
2022-09-07T16:16:15.678Z,3604.00
2022-09-07T16:17:28.142Z,3400.00
2022-09-07T16:18:12.001Z,3196.00
2022-09-07T16:19:12.731Z,3116.00
2022-09-07T16:20:13.156Z,3040.00
2022-09-07T16:21:12.549Z,2940.00
2022-09-07T16:23:13.148Z,2836.00
2022-09-07T16:23:15.917Z,2716.00
2022-09-07T16:24:11.560Z,2368.00
2022-09-07T16:25:12.573Z,2116.00
2022-09-07T16:26:13.149Z,1956.00
2022-09-07T16:27:13.173Z,1748.00
2022-09-07T16:28:13.801Z,1592.00
2022-09-07T16:29:13.161Z,1500.00
2022-09-07T16:30:13.522Z,1416.00
2022-09-07T16:31:14.051Z,1380.00
2022-09-07T16:33:13.337Z,1484.00
2022-09-07T16:34:13.165Z,1540.00
2022-09-07T16:35:15.549Z,1604.00
2022-09-07T16:36:12.675Z,1632.00
2022-09-07T16:37:13.156Z,1648.00
2022-09-07T16:39:13.182Z,1920.00
2022-09-07T16:40:11.648Z,1992.00
2022-09-07T16:41:11.592Z,1872.00
2022-09-07T16:42:11.601Z,1760.00
2022-09-07T16:43:11.625Z,1676.00
2022-09-07T16:44:13.267Z,1612.00
2022-09-07T16:46:11.601Z,1512.00
2022-09-07T16:47:11.619Z,1492.00
2022-09-07T16:48:13.661Z,1440.00
2022-09-07T16:49:11.632Z,1368.00
2022-09-07T16:50:11.644Z,1296.00
2022-09-07T16:51:11.622Z,1224.00
2022-09-07T16:52:13.193Z,1156.00
2022-09-07T16:53:11.626Z,1084.00
2022-09-07T16:54:11.622Z,1020.00
2022-09-07T16:55:11.621Z,952.00
2022-09-07T16:56:11.637Z,900.00
2022-09-07T16:57:13.194Z,868.00
2022-09-07T16:59:13.203Z,816.00
2022-09-07T17:00:13.199Z,792.00
2022-09-07T17:01:13.230Z,768.00
2022-09-07T17:02:13.197Z,740.00
2022-09-07T17:03:13.191Z,712.00
2022-09-07T17:04:13.252Z,688.00
2022-09-07T17:05:13.184Z,668.00
2022-09-07T17:06:13.196Z,640.00
2022-09-07T17:07:13.187Z,616.00
2022-09-07T17:08:13.186Z,592.00
2022-09-07T17:09:13.203Z,568.00
2022-09-07T17:10:13.192Z,544.00
2022-09-07T17:11:13.336Z,520.00
2022-09-07T17:12:13.203Z,504.00
2022-09-07T17:13:13.195Z,488.00